»·PEaware :: N525SA KOLM-KPDX

N525SA :: KOLM-KPDX

FLIGHT INFORMATION

Flight Status: Arrived
Operator: Privately registered:
United States
More flights under this callsign
Pilot: Utku A. (15598)
Aircraft: SOCATA TBM-900
(TBM9)
More flights by this aircraft type
Origin: KOLM Olympia
United States
Destination: KPDX Portland Intl
United States
More flights between these airports :: More routes between these airports
Route: +YELM5 ALDER HELNS HELNS6
File this flight plan on PilotEdge
Remarks:
Altitude:
(Current/Filed)
17,000ft
Speed:
(Current/Filed)
280kts
Departed: 29-Oct-18 04:25 PM
Arrived: 29-Oct-18 05:04 PM
Distance/Time
Traveled:
84nm/0:39
Distance/Time
To Go:
Arrived

Flight Plot

Page will automatically refresh every two minutes.

Flight plan parsing failed; only flown route is shown


Map Options




Map Legend


Flown Route
Filed Route
Departure Airport
Arrival Airport
Navaid (VOR, NDB)
Fix

Horizontal Profiles

Position Reports

Time Latitude Longitude Heading Altitude Ground
Speed
29-Oct-18 16:03 46.976551 -122.899826 100 194ft 0kts
29-Oct-18 16:04 46.976551 -122.899826 100 194ft 0kts
29-Oct-18 16:04 46.976551 -122.899826 100 194ft 0kts
29-Oct-18 16:06 46.976551 -122.899826 100 194ft 0kts
29-Oct-18 16:06 46.976551 -122.899826 100 194ft 0kts
29-Oct-18 16:08 46.976551 -122.899826 100 194ft 0kts
29-Oct-18 16:08 46.976551 -122.899826 100 194ft 0kts
29-Oct-18 16:10 46.976551 -122.899826 100 194ft 0kts
29-Oct-18 16:10 46.976551 -122.899826 100 194ft 0kts
29-Oct-18 16:11 46.976551 -122.899826 100 194ft 0kts
29-Oct-18 16:12 46.976551 -122.899826 100 194ft 0kts
29-Oct-18 16:13 46.976551 -122.899826 100 194ft 0kts
29-Oct-18 16:14 46.976551 -122.899826 100 194ft 0kts
29-Oct-18 16:15 46.976551 -122.899826 100 194ft 0kts
29-Oct-18 16:16 46.976551 -122.899826 100 194ft 0kts
29-Oct-18 16:17 46.976551 -122.899826 100 194ft 0kts
29-Oct-18 16:18 46.976551 -122.899826 100 194ft 0kts
29-Oct-18 16:19 46.976551 -122.899826 100 194ft 0kts
29-Oct-18 16:20 46.976551 -122.899826 100 194ft 0kts
29-Oct-18 16:21 46.976568 -122.899688 64 194ft 2kts
29-Oct-18 16:22 46.976862 -122.900006 213 193ft 2kts
29-Oct-18 16:23 46.976151 -122.901210 281 194ft 0kts
29-Oct-18 16:24 46.976151 -122.901210 281 194ft 0kts
29-Oct-18 16:25 46.976151 -122.901210 281 194ft 0kts
29-Oct-18 16:26 46.975516 -122.902654 191 196ft 28kts
29-Oct-18 16:27 46.955944 -122.891474 77 1876ft 122kts
29-Oct-18 16:28 46.964037 -122.841465 79 4098ft 135kts
29-Oct-18 16:29 46.972299 -122.787015 79 6274ft 141kts
29-Oct-18 16:30 46.978989 -122.728871 112 8536ft 147kts
29-Oct-18 16:31 46.954154 -122.680281 129 10415ft 156kts
29-Oct-18 16:32 46.927814 -122.627890 126 12349ft 166kts
29-Oct-18 16:33 46.900115 -122.572013 126 14119ft 175kts
29-Oct-18 16:34 46.871232 -122.513885 126 15649ft 183kts
29-Oct-18 16:35 46.840759 -122.452699 126 16987ft 196kts
29-Oct-18 16:36 46.790733 -122.408972 177 17016ft 240kts
29-Oct-18 16:37 46.722510 -122.395744 177 16996ft 261kts
29-Oct-18 16:38 46.650038 -122.382212 177 17001ft 263kts
29-Oct-18 16:39 46.577941 -122.368813 177 17011ft 264kts
29-Oct-18 16:40 46.505652 -122.355417 177 17015ft 264kts
29-Oct-18 16:41 46.433990 -122.342182 178 15896ft 266kts
29-Oct-18 16:42 46.364595 -122.329353 178 15342ft 240kts
29-Oct-18 16:43 46.299618 -122.317430 178 14821ft 233kts
29-Oct-18 16:44 46.237676 -122.320718 207 14309ft 219kts
29-Oct-18 16:45 46.181548 -122.351772 207 13089ft 214kts
29-Oct-18 16:46 46.125477 -122.383044 205 10610ft 221kts
29-Oct-18 16:47 46.071894 -122.412748 205 10020ft 206kts
29-Oct-18 16:48 46.016651 -122.443387 204 10022ft 222kts
29-Oct-18 16:49 45.958135 -122.475759 204 10018ft 228kts
29-Oct-18 16:50 45.899120 -122.508350 204 9709ft 229kts
29-Oct-18 16:51 45.841360 -122.540176 203 9018ft 229kts
29-Oct-18 16:52 45.782259 -122.572685 201 8290ft 229kts
29-Oct-18 16:53 45.764838 -122.641820 295 7275ft 227kts
29-Oct-18 16:54 45.780213 -122.723360 264 6250ft 200kts
29-Oct-18 16:55 45.775548 -122.797035 264 5180ft 175kts
29-Oct-18 16:56 45.768236 -122.862566 224 4120ft 163kts
29-Oct-18 16:57 45.730867 -122.878253 145 3032ft 151kts
29-Oct-18 16:58 45.696446 -122.844786 144 3021ft 155kts
29-Oct-18 16:59 45.674510 -122.799892 118 3080ft 125kts
29-Oct-18 17:00 45.658138 -122.757663 118 2526ft 119kts
29-Oct-18 17:01 45.642133 -122.716485 118 1920ft 119kts
29-Oct-18 17:02 45.626137 -122.675436 118 1302ft 122kts
29-Oct-18 17:03 45.611930 -122.638944 120 783ft 94kts
29-Oct-18 17:04 45.599556 -122.607648 118 245ft 86kts
29-Oct-18 17:05 45.589583 -122.582250 118 32ft 44kts
29-Oct-18 17:06 45.586215 -122.576442 210 32ft 2kts
29-Oct-18 17:07 45.585382 -122.577076 25 32ft 9kts
29-Oct-18 17:08 45.588046 -122.581504 299 32ft 21kts
29-Oct-18 17:09 45.588340 -122.585023 157 32ft 3kts
29-Oct-18 17:10 45.588178 -122.585086 210 32ft 0kts
29-Oct-18 17:11 45.588178 -122.585086 210 32ft 0kts
29-Oct-18 17:12 45.588178 -122.585086 210 32ft 0kts
29-Oct-18 17:13 45.588178 -122.585086 210 32ft 0kts
29-Oct-18 17:14 45.588178 -122.585086 210 32ft 0kts
29-Oct-18 17:15 45.588178 -122.585086 210 32ft 0kts
29-Oct-18 17:16 45.588178 -122.585086 210 32ft 0kts
29-Oct-18 17:17 45.588178 -122.585086 210 32ft 0kts
29-Oct-18 17:18 45.588178 -122.585086 210 32ft 0kts
29-Oct-18 17:19 45.588178 -122.585086 210 32ft 0kts
29-Oct-18 17:20 45.588178 -122.585086 210 32ft 0kts

Navigation Log

Ident Type
Flight plan parsing failed, navigation log unavailable